Terminal Aerodrome Forecast
Issued by NWS

Home | Current Version | Previous Version | Text Only | Print | Product List | Glossary On
Versions: 1 2 3 4 5 6 7 8 9 10 11 12 13 14 15 16 17
000
FTUS46 KSEW 192337
TAFHQM
TAF
KHQM 192337Z 2000/2024 15012KT P6SM SCT025 BKN045
      TEMPO 2000/2004 4SM -SHRA BR BKN025 OVC045
     FM200400 14007KT P6SM -SHRA SCT025 BKN050
     FM201200 05006KT 6SM -SHRA BR BKN020 OVC040
     FM201900 33007KT 6SM -SHRA BR BKN015 OVC030=

USA.gov is the U.S. government's official web portal to all federal, state and local government web resources and services.